createdAt,value
2024-04-12T00:02:13.942Z,0.22
2024-04-12T00:04:42.758Z,0.25
2024-04-12T00:07:22.309Z,0.40
2024-04-12T00:09:55.843Z,0.93
2024-04-12T00:18:20.650Z,0.30
2024-04-12T00:20:48.924Z,0.10
2024-04-12T00:23:27.083Z,0.30
2024-04-12T00:25:56.717Z,0.28
2024-04-12T00:28:26.974Z,0.20
2024-04-12T00:31:00.782Z,0.28
2024-04-12T00:33:34.371Z,0.70
2024-04-12T00:36:09.668Z,0.70
2024-04-12T00:41:16.155Z,0.20
2024-04-12T00:43:48.945Z,0.57
2024-04-12T00:46:19.933Z,0.22
2024-04-12T00:48:53.631Z,0.20
2024-04-12T00:51:23.613Z,0.65
2024-04-12T00:54:00.518Z,0.08
2024-04-12T00:56:29.130Z,0.22
2024-04-12T00:59:00.816Z,0.40
2024-04-12T01:01:28.933Z,0.40
2024-04-12T01:04:02.475Z,0.13
2024-04-12T01:06:30.697Z,0.35
2024-04-12T01:09:15.798Z,1.05
2024-04-12T01:11:45.147Z,0.30
2024-04-12T01:14:16.342Z,0.30
2024-04-12T01:16:44.291Z,0.40
2024-04-12T01:19:15.653Z,0.32
2024-04-12T01:21:45.773Z,0.20
2024-04-12T01:24:20.301Z,0.57
2024-04-12T01:26:50.971Z,0.15
2024-04-12T01:29:25.539Z,0.28
2024-04-12T01:31:55.435Z,0.65
2024-04-12T01:34:25.892Z,0.10
2024-04-12T01:36:55.558Z,0.45
2024-04-12T01:39:30.123Z,0.45
2024-04-12T01:42:05.571Z,0.25
2024-04-12T01:44:39.366Z,1.40
2024-04-12T01:47:07.140Z,0.20
2024-04-12T01:49:44.692Z,0.70
2024-04-12T01:52:27.216Z,0.10
2024-04-12T01:55:12.181Z,0.28
2024-04-12T01:57:42.712Z,0.50
2024-04-12T02:00:18.136Z,0.13
2024-04-12T02:02:45.932Z,0.22
2024-04-12T02:05:16.314Z,0.35
2024-04-12T02:07:45.897Z,0.57
2024-04-12T02:10:16.479Z,0.73
2024-04-12T02:12:48.074Z,0.82
2024-04-12T02:15:27.205Z,0.63
2024-04-12T02:17:59.059Z,0.22
2024-04-12T02:20:35.575Z,0.50
2024-04-12T02:23:06.161Z,0.22
2024-04-12T02:25:37.091Z,0.52
2024-04-12T02:28:13.125Z,0.52
2024-04-12T02:30:43.204Z,0.13
2024-04-12T02:33:14.010Z,0.98
2024-04-12T02:35:42.806Z,0.45
2024-04-12T02:38:16.601Z,0.50
2024-04-12T02:40:44.726Z,0.70
2024-04-12T02:43:19.372Z,0.80
2024-04-12T02:45:50.429Z,0.80
2024-04-12T02:48:21.580Z,0.75
2024-04-12T02:50:49.840Z,0.25
2024-04-12T02:53:21.474Z,0.38
2024-04-12T02:56:02.468Z,0.40
2024-04-12T02:58:40.711Z,0.17
2024-04-12T03:01:09.253Z,0.10
2024-04-12T03:03:42.561Z,0.13
2024-04-12T03:09:07.366Z,0.25
2024-04-12T03:11:36.757Z,0.63
2024-04-12T03:14:14.158Z,0.40
2024-04-12T03:16:43.699Z,0.73
2024-04-12T03:19:16.938Z,0.10
2024-04-12T03:21:45.221Z,0.20
2024-04-12T03:24:17.619Z,0.90
2024-04-12T03:26:46.322Z,0.30
2024-04-12T03:29:20.182Z,0.68
2024-04-12T03:31:49.213Z,0.73
2024-04-12T03:34:21.751Z,0.40
2024-04-12T03:36:58.436Z,0.45
2024-04-12T03:39:31.751Z,0.30
2024-04-12T03:42:06.266Z,0.35
2024-04-12T03:44:44.216Z,0.55
2024-04-12T03:47:15.001Z,0.55
2024-04-12T03:49:48.706Z,0.63
2024-04-12T03:52:21.982Z,0.75
2024-04-12T03:55:12.781Z,1.27
2024-04-12T03:57:40.823Z,1.40
2024-04-12T04:00:16.416Z,0.88
2024-04-12T04:02:49.707Z,0.22
2024-04-12T04:05:27.193Z,0.47
2024-04-12T04:07:58.951Z,0.98
2024-04-12T04:10:31.581Z,0.30
2024-04-12T04:15:52.066Z,0.85
2024-04-12T04:18:19.963Z,0.20
2024-04-12T04:20:51.468Z,1.00
2024-04-12T04:23:21.794Z,0.22
2024-04-12T04:25:56.430Z,0.45
2024-04-12T04:28:32.861Z,0.47
2024-04-12T04:31:09.798Z,0.73
2024-04-12T04:33:40.121Z,0.98
2024-04-12T04:36:13.505Z,0.40
2024-04-12T04:38:41.301Z,0.40
2024-04-12T04:41:13.129Z,0.57
2024-04-12T04:43:40.895Z,0.80
2024-04-12T04:46:28.286Z,1.05
2024-04-12T04:48:56.455Z,0.35
2024-04-12T04:51:27.173Z,0.68
2024-04-12T04:53:55.997Z,1.00
2024-04-12T04:56:34.669Z,0.13
2024-04-12T04:59:02.359Z,0.63
2024-04-12T05:01:35.795Z,0.63
2024-04-12T05:04:04.278Z,0.63
2024-04-12T05:06:35.320Z,0.57
2024-04-12T05:09:04.252Z,0.50
2024-04-12T05:11:41.136Z,0.88
2024-04-12T05:14:15.371Z,0.82
2024-04-12T05:16:49.965Z,0.88
2024-04-12T05:19:21.115Z,0.60
2024-04-12T05:21:53.593Z,0.85
2024-04-12T05:24:21.304Z,0.77
2024-04-12T05:27:02.724Z,0.47
2024-04-12T05:32:07.763Z,0.45
2024-04-12T05:34:36.369Z,0.32
2024-04-12T05:39:37.967Z,0.68
2024-04-12T05:42:06.789Z,0.30
2024-04-12T05:44:37.790Z,1.17
2024-04-12T05:47:08.456Z,0.55
2024-04-12T05:49:38.976Z,0.50
2024-04-12T05:52:08.426Z,0.80
2024-04-12T05:54:46.374Z,0.90
2024-04-12T05:57:14.583Z,0.75
2024-04-12T05:59:46.268Z,0.68
2024-04-12T06:02:18.321Z,0.55
2024-04-12T06:04:49.214Z,0.95
2024-04-12T06:07:18.116Z,0.43
2024-04-12T06:09:51.017Z,1.00
2024-04-12T06:12:18.666Z,0.82
2024-04-12T06:14:49.590Z,0.43
2024-04-12T06:17:24.163Z,0.50
2024-04-12T06:19:59.569Z,0.80
2024-04-12T06:28:15.933Z,0.98
2024-04-12T06:30:49.104Z,0.90
2024-04-12T06:33:21.493Z,0.52
2024-04-12T06:35:54.273Z,0.88
2024-04-12T06:38:23.771Z,1.00
2024-04-12T06:40:58.472Z,0.17
2024-04-12T06:43:27.847Z,0.40
2024-04-12T06:46:01.884Z,0.57
2024-04-12T06:48:32.880Z,0.70
2024-04-12T06:51:07.073Z,0.93
2024-04-12T06:53:35.082Z,0.50
2024-04-12T06:56:14.292Z,0.70
2024-04-12T06:58:42.862Z,0.65
2024-04-12T07:03:48.898Z,1.13
2024-04-12T07:06:22.465Z,0.75
2024-04-12T07:08:51.959Z,0.73
2024-04-12T07:11:23.668Z,0.77
2024-04-12T07:13:52.053Z,0.38
2024-04-12T07:16:22.932Z,0.73
2024-04-12T07:19:24.477Z,0.85
2024-04-12T07:24:51.731Z,1.58
2024-04-12T07:27:23.936Z,0.90
2024-04-12T07:29:52.248Z,1.02
2024-04-12T07:32:23.739Z,0.88
2024-04-12T07:34:53.742Z,1.08
2024-04-12T07:37:33.422Z,1.42
2024-04-12T07:40:19.911Z,0.82
2024-04-12T07:42:53.486Z,1.58
2024-04-12T07:45:24.633Z,1.33
2024-04-12T07:48:12.950Z,0.80
2024-04-12T07:50:42.990Z,1.52
2024-04-12T07:53:22.923Z,1.65
2024-04-12T07:55:59.303Z,1.75
2024-04-12T07:58:35.956Z,1.27
2024-04-12T08:01:17.088Z,1.00
2024-04-12T08:03:52.421Z,0.85
2024-04-12T08:06:37.670Z,1.73
2024-04-12T08:09:22.376Z,0.98
2024-04-12T08:11:53.208Z,1.05
2024-04-12T08:14:23.884Z,0.82
2024-04-12T08:16:55.859Z,0.70
2024-04-12T08:19:40.019Z,1.13
2024-04-12T08:22:19.232Z,1.50
2024-04-12T08:24:53.332Z,0.95
2024-04-12T08:27:25.410Z,1.05
2024-04-12T08:29:56.845Z,1.17
2024-04-12T08:32:29.645Z,0.90
2024-04-12T08:35:00.937Z,1.05
2024-04-12T08:37:31.614Z,1.25
2024-04-12T08:40:09.655Z,1.58
2024-04-12T08:42:38.405Z,1.45
2024-04-12T08:45:19.343Z,1.10
2024-04-12T08:47:56.885Z,1.38
2024-04-12T08:50:32.851Z,1.40
2024-04-12T08:53:13.782Z,1.20
2024-04-12T08:55:44.470Z,1.33
2024-04-12T08:58:22.294Z,1.40
2024-04-12T09:00:52.774Z,1.27
2024-04-12T09:03:31.610Z,1.10
2024-04-12T09:05:59.580Z,0.75
2024-04-12T09:08:38.126Z,1.13
2024-04-12T09:11:09.017Z,1.33
2024-04-12T09:13:42.463Z,0.75
2024-04-12T09:16:11.940Z,1.05
2024-04-12T09:18:48.596Z,1.13
2024-04-12T09:21:25.757Z,1.05
2024-04-12T09:24:10.932Z,0.93
2024-04-12T09:26:56.450Z,1.83
2024-04-12T09:29:28.493Z,1.52
2024-04-12T09:32:15.804Z,1.80
2024-04-12T09:34:48.148Z,1.00
2024-04-12T09:37:39.629Z,0.88
2024-04-12T09:40:26.291Z,0.70
2024-04-12T09:43:21.868Z,1.50
2024-04-12T09:46:06.880Z,1.10
2024-04-12T09:48:54.247Z,0.93
2024-04-12T09:51:40.372Z,1.10
2024-04-12T09:54:26.437Z,0.60
2024-04-12T09:57:17.242Z,1.05
2024-04-12T10:00:21.761Z,0.77
2024-04-12T10:03:09.540Z,1.17
2024-04-12T10:05:55.807Z,0.80
2024-04-12T10:08:42.638Z,1.13
2024-04-12T10:11:29.167Z,0.85
2024-04-12T10:14:18.166Z,1.40
2024-04-12T10:17:04.345Z,1.05
2024-04-12T10:19:50.474Z,1.05
2024-04-12T10:22:36.595Z,1.40
2024-04-12T10:25:23.668Z,0.98
2024-04-12T10:28:10.989Z,1.08
2024-04-12T10:31:06.201Z,0.93
2024-04-12T10:34:01.899Z,1.17
2024-04-12T10:36:48.470Z,1.30
2024-04-12T10:39:19.141Z,0.70
2024-04-12T10:41:50.310Z,1.05
2024-04-12T10:44:20.574Z,1.00
2024-04-12T10:46:55.550Z,1.73
2024-04-12T10:49:23.162Z,1.45
2024-04-12T10:51:54.370Z,1.50
2024-04-12T10:54:25.135Z,1.65
2024-04-12T10:56:59.975Z,1.48
2024-04-12T10:59:29.241Z,1.48
2024-04-12T11:02:02.479Z,1.40
2024-04-12T11:04:36.251Z,1.35
2024-04-12T11:07:08.568Z,0.98
2024-04-12T11:09:45.153Z,1.50
2024-04-12T11:12:18.479Z,1.08
2024-04-12T11:14:51.775Z,1.33
2024-04-12T11:17:42.500Z,1.30
2024-04-12T11:20:31.985Z,1.52
2024-04-12T11:23:23.299Z,1.60
2024-04-12T11:26:09.674Z,1.30
2024-04-12T11:29:12.940Z,1.60
2024-04-12T11:31:43.082Z,1.23
2024-04-12T11:37:14.747Z,1.42
2024-04-12T11:39:46.989Z,1.63
2024-04-12T11:42:19.845Z,1.70
2024-04-12T11:44:55.020Z,1.50
2024-04-12T11:47:25.156Z,1.35
2024-04-12T11:49:59.396Z,0.80
2024-04-12T11:52:27.551Z,1.45
2024-04-12T11:55:00.452Z,1.13
2024-04-12T11:57:29.121Z,1.17
2024-04-12T12:00:00.753Z,1.30
2024-04-12T12:03:21.618Z,1.20
2024-04-12T12:05:53.946Z,1.75
2024-04-12T12:08:38.350Z,1.65
2024-04-12T12:11:09.927Z,1.40
2024-04-12T12:13:37.489Z,1.30
2024-04-12T12:16:08.540Z,1.35
2024-04-12T12:18:36.851Z,1.08
2024-04-12T12:21:10.069Z,1.17
2024-04-12T12:23:38.107Z,1.45
2024-04-12T12:26:10.049Z,1.33
2024-04-12T12:28:37.837Z,1.35
2024-04-12T12:31:08.254Z,1.33
2024-04-12T12:33:39.554Z,1.77
2024-04-12T12:36:12.978Z,1.05
2024-04-12T12:38:41.750Z,1.50
2024-04-12T12:41:12.072Z,1.65
2024-04-12T12:43:45.360Z,1.65
2024-04-12T12:46:16.125Z,1.65
2024-04-12T12:48:44.116Z,1.15
2024-04-12T12:51:17.007Z,1.83
2024-04-12T12:53:45.462Z,1.70
2024-04-12T12:56:16.031Z,1.30
2024-04-12T12:58:43.593Z,1.52
2024-04-12T13:01:15.478Z,1.48
2024-04-12T13:03:45.330Z,1.27
2024-04-12T13:06:22.591Z,1.00
2024-04-12T13:08:50.805Z,1.42
2024-04-12T13:11:26.134Z,1.88
2024-04-12T13:13:54.251Z,1.40
2024-04-12T13:16:27.793Z,1.63
2024-04-12T13:18:57.908Z,1.58
2024-04-12T13:21:31.092Z,2.10
2024-04-12T13:23:58.676Z,1.42
2024-04-12T13:26:34.967Z,1.30
2024-04-12T13:29:02.604Z,1.70
2024-04-12T13:31:34.604Z,1.45
2024-04-12T13:34:02.586Z,1.73
2024-04-12T13:36:36.012Z,1.50
2024-04-12T13:39:06.571Z,1.85
2024-04-12T13:41:36.763Z,1.92
2024-04-12T13:44:10.104Z,0.88
2024-04-12T13:46:56.410Z,1.00
2024-04-12T13:49:44.787Z,1.92
2024-04-12T13:52:17.592Z,1.20
2024-04-12T13:54:52.270Z,0.90
2024-04-12T13:59:53.449Z,1.13
2024-04-12T14:02:21.280Z,0.80
2024-04-12T14:04:52.312Z,1.02
2024-04-12T14:07:25.323Z,1.17
2024-04-12T14:09:55.570Z,1.00
2024-04-12T14:12:25.854Z,0.85
2024-04-12T14:14:53.956Z,0.80
2024-04-12T14:17:24.716Z,0.80
2024-04-12T14:19:52.874Z,1.17
2024-04-12T14:22:26.704Z,0.60
2024-04-12T14:25:07.181Z,1.17
2024-04-12T14:27:38.110Z,0.93
2024-04-12T14:30:07.638Z,0.90
2024-04-12T14:32:37.915Z,0.88
2024-04-12T14:37:48.164Z,1.23
2024-04-12T14:42:53.474Z,0.57
2024-04-12T14:45:22.931Z,0.90
2024-04-12T14:47:59.529Z,1.17
2024-04-12T14:50:36.118Z,0.80
2024-04-12T14:53:10.742Z,1.00
2024-04-12T14:55:38.298Z,0.77
2024-04-12T14:58:08.523Z,0.80
2024-04-12T15:00:41.498Z,0.82
2024-04-12T15:03:27.899Z,0.55
2024-04-12T15:06:14.067Z,0.80
2024-04-12T15:09:02.546Z,1.02
2024-04-12T15:11:48.607Z,0.98
2024-04-12T15:14:38.405Z,0.60
2024-04-12T15:17:25.962Z,0.38
2024-04-12T15:20:12.000Z,0.88
2024-04-12T15:22:58.008Z,0.70
2024-04-12T15:25:46.887Z,0.82
2024-04-12T15:28:32.981Z,0.73
2024-04-12T15:31:19.318Z,0.60
2024-04-12T15:34:05.651Z,0.65
2024-04-12T15:36:51.623Z,0.90
2024-04-12T15:39:37.879Z,0.73
2024-04-12T15:42:27.092Z,1.15
2024-04-12T15:45:13.246Z,0.85
2024-04-12T15:47:40.878Z,0.60
2024-04-12T15:50:28.117Z,0.50
2024-04-12T15:53:14.308Z,0.65
2024-04-12T15:56:08.647Z,0.50
2024-04-12T15:58:57.566Z,0.73
2024-04-12T16:01:43.941Z,0.65
2024-04-12T16:04:30.164Z,1.00
2024-04-12T16:07:16.219Z,0.50
2024-04-12T16:10:02.459Z,0.55
2024-04-12T16:12:34.015Z,0.50
2024-04-12T16:15:07.583Z,0.90
2024-04-12T16:17:38.267Z,0.80
2024-04-12T16:20:09.538Z,0.80
2024-04-12T16:22:37.142Z,0.77
2024-04-12T16:25:07.743Z,0.77
2024-04-12T16:27:35.077Z,0.65
2024-04-12T16:30:08.506Z,0.60
2024-04-12T16:32:35.759Z,0.80
2024-04-12T16:35:06.346Z,0.45
2024-04-12T16:37:33.567Z,0.77
2024-04-12T16:40:03.534Z,0.63
2024-04-12T16:42:33.350Z,0.90
2024-04-12T16:45:00.670Z,0.55
2024-04-12T16:47:33.380Z,0.60
2024-04-12T16:50:04.363Z,0.70
2024-04-12T16:52:36.466Z,0.47
2024-04-12T16:55:05.609Z,0.47
2024-04-12T16:57:35.806Z,0.77
2024-04-12T17:00:03.715Z,0.40
2024-04-12T17:02:36.625Z,0.80
2024-04-12T17:05:04.693Z,0.70
2024-04-12T17:10:27.256Z,0.60
2024-04-12T17:12:57.563Z,0.80
2024-04-12T17:15:25.978Z,0.60
2024-04-12T17:17:58.932Z,0.40
2024-04-12T17:20:27.221Z,0.65
2024-04-12T17:22:57.070Z,0.40
2024-04-12T17:25:24.658Z,0.60
2024-04-12T17:27:54.878Z,0.82
2024-04-12T17:30:22.230Z,0.28
2024-04-12T17:32:52.265Z,0.40
2024-04-12T17:35:22.111Z,0.60
2024-04-12T17:37:51.929Z,0.80
2024-04-12T17:40:21.217Z,0.60
2024-04-12T17:42:51.163Z,0.28
2024-04-12T17:45:19.736Z,0.45
2024-04-12T17:47:51.031Z,0.38
2024-04-12T17:51:13.051Z,0.70
2024-04-12T17:53:43.493Z,0.77
2024-04-12T17:56:14.929Z,0.93
2024-04-12T17:58:42.544Z,0.35
2024-04-12T18:01:18.553Z,0.45
2024-04-12T18:03:46.733Z,0.70
2024-04-12T18:06:16.910Z,0.52
2024-04-12T18:08:46.933Z,0.47
2024-04-12T18:11:16.969Z,0.88
2024-04-12T18:13:44.297Z,0.50
2024-04-12T18:16:14.496Z,0.30
2024-04-12T18:21:42.405Z,0.85
2024-04-12T18:24:12.576Z,0.75
2024-04-12T18:26:42.673Z,0.45
2024-04-12T18:29:09.966Z,0.80
2024-04-12T18:31:40.511Z,0.80
2024-04-12T18:34:18.741Z,0.52
2024-04-12T18:37:09.246Z,0.40
2024-04-12T18:39:57.849Z,0.50
2024-04-12T18:42:43.682Z,0.63
2024-04-12T18:45:16.255Z,0.22
2024-04-12T18:47:48.055Z,0.40
2024-04-12T18:50:21.669Z,0.95
2024-04-12T18:52:53.077Z,1.20
2024-04-12T18:55:23.951Z,1.10
2024-04-12T18:57:54.010Z,0.95
2024-04-12T19:00:21.547Z,1.85
2024-04-12T19:02:51.652Z,0.28
2024-04-12T19:05:19.107Z,0.50
2024-04-12T19:07:51.331Z,0.88
2024-04-12T19:10:18.656Z,0.95
2024-04-12T19:12:51.145Z,0.80
2024-04-12T19:15:18.654Z,1.52
2024-04-12T19:17:49.107Z,0.75
2024-04-12T19:20:16.617Z,0.82
2024-04-12T19:22:48.023Z,0.70
2024-04-12T19:25:16.316Z,0.45
2024-04-12T19:27:46.475Z,0.68
2024-04-12T19:30:16.994Z,0.60
2024-04-12T19:32:46.971Z,1.27
2024-04-12T19:35:14.464Z,0.70
2024-04-12T19:37:48.855Z,0.93
2024-04-12T19:40:16.411Z,0.70
2024-04-12T19:42:46.253Z,0.55
2024-04-12T19:45:16.254Z,1.17
2024-04-12T19:47:46.153Z,0.40
2024-04-12T19:50:14.107Z,0.75
2024-04-12T19:52:51.007Z,0.95
2024-04-12T19:55:23.190Z,0.50
2024-04-12T19:57:52.972Z,0.35
2024-04-12T20:00:22.996Z,0.38
2024-04-12T20:02:52.915Z,0.90
2024-04-12T20:05:20.116Z,0.98
2024-04-12T20:07:50.696Z,1.08
2024-04-12T20:10:20.539Z,0.60
2024-04-12T20:12:50.308Z,0.77
2024-04-12T20:15:18.618Z,0.50
2024-04-12T20:17:51.289Z,1.08
2024-04-12T20:20:19.425Z,0.85
2024-04-12T20:22:51.446Z,0.75
2024-04-12T20:25:18.658Z,0.70
2024-04-12T20:27:49.168Z,0.80
2024-04-12T20:30:30.817Z,0.60
2024-04-12T20:33:10.257Z,0.73
2024-04-12T20:35:48.938Z,0.60
2024-04-12T20:38:18.736Z,0.95
2024-04-12T20:43:39.745Z,0.57
2024-04-12T20:46:07.071Z,0.50
2024-04-12T20:48:39.989Z,1.20
2024-04-12T20:51:08.134Z,1.00
2024-04-12T20:53:38.019Z,0.90
2024-04-12T20:56:05.996Z,0.60
2024-04-12T20:58:35.786Z,0.75
2024-04-12T21:01:04.632Z,0.45
2024-04-12T21:03:35.133Z,0.73
2024-04-12T21:06:06.728Z,0.93
2024-04-12T21:08:36.546Z,0.90
2024-04-12T21:11:14.986Z,0.70
2024-04-12T21:13:48.747Z,1.05
2024-04-12T21:16:16.020Z,0.50
2024-04-12T21:18:46.050Z,0.95
2024-04-12T21:21:17.508Z,0.77
2024-04-12T21:23:47.550Z,0.90
2024-04-12T21:26:14.864Z,0.85
2024-04-12T21:28:44.637Z,1.58
2024-04-12T21:31:11.828Z,0.68
2024-04-12T21:33:41.686Z,0.55
2024-04-12T21:36:10.057Z,0.63
2024-04-12T21:38:46.374Z,0.20
2024-04-12T21:41:16.817Z,0.77
2024-04-12T21:43:48.953Z,1.10
2024-04-12T21:46:19.030Z,0.65
2024-04-12T21:48:51.293Z,0.75
2024-04-12T21:51:21.585Z,0.90
2024-04-12T21:53:54.416Z,0.95
2024-04-12T21:56:22.736Z,0.80
2024-04-12T21:58:53.002Z,0.70
2024-04-12T22:04:15.004Z,0.45
2024-04-12T22:06:42.285Z,0.45
2024-04-12T22:09:14.708Z,0.73
2024-04-12T22:11:41.948Z,0.45
2024-04-12T22:14:11.738Z,0.68
2024-04-12T22:16:39.042Z,1.02
2024-04-12T22:19:08.924Z,0.90
2024-04-12T22:21:36.370Z,0.68
2024-04-12T22:24:06.519Z,0.85
2024-04-12T22:26:36.514Z,0.35
2024-04-12T22:29:06.349Z,0.40
2024-04-12T22:31:33.770Z,0.70
2024-04-12T22:34:03.713Z,0.38
2024-04-12T22:36:31.079Z,0.25
2024-04-12T22:39:01.063Z,0.73
2024-04-12T22:41:28.315Z,1.02
2024-04-12T22:44:00.830Z,0.80
2024-04-12T22:46:29.715Z,0.95
2024-04-12T22:48:59.677Z,0.50
2024-04-12T22:51:27.566Z,0.80
2024-04-12T22:53:58.719Z,1.00
2024-04-12T22:56:26.707Z,0.63
2024-04-12T22:59:00.473Z,0.20
2024-04-12T23:01:28.610Z,0.70
2024-04-12T23:06:26.096Z,0.50
2024-04-12T23:08:55.973Z,0.60
2024-04-12T23:11:23.329Z,0.65
2024-04-12T23:13:53.160Z,1.02
2024-04-12T23:16:23.043Z,0.50
2024-04-12T23:18:55.643Z,0.98
2024-04-12T23:21:22.984Z,0.70
2024-04-12T23:23:52.890Z,0.70
2024-04-12T23:26:20.115Z,0.70
2024-04-12T23:28:50.537Z,0.73
2024-04-12T23:31:17.749Z,0.63
2024-04-12T23:33:50.221Z,0.93
2024-04-12T23:36:17.430Z,0.80
2024-04-12T23:38:47.307Z,0.93
2024-04-12T23:41:14.595Z,0.57
2024-04-12T23:43:45.516Z,0.80
2024-04-12T23:46:16.124Z,0.50
2024-04-12T23:48:49.895Z,0.57
2024-04-12T23:51:17.140Z,0.45
2024-04-12T23:53:46.916Z,1.20
2024-04-12T23:56:14.330Z,1.05
2024-04-12T23:58:44.200Z,0.85
